sensor_id;sensor_type;location;lat;lon;timestamp;temperature;humidity
20845;DHT22;10583;49.084;8.646;2023-09-08T00:02:02;16.90;99.90
20845;DHT22;10583;49.084;8.646;2023-09-08T00:04:30;16.90;99.90
20845;DHT22;10583;49.084;8.646;2023-09-08T00:06:59;16.80;99.90
20845;DHT22;10583;49.084;8.646;2023-09-08T00:09:26;16.70;99.90
20845;DHT22;10583;49.084;8.646;2023-09-08T00:11:55;16.70;99.90
20845;DHT22;10583;49.084;8.646;2023-09-08T00:14:21;16.70;99.90
20845;DHT22;10583;49.084;8.646;2023-09-08T00:16:48;16.60;99.90
20845;DHT22;10583;49.084;8.646;2023-09-08T00:19:16;16.50;99.90
20845;DHT22;10583;49.084;8.646;2023-09-08T00:21:43;16.50;99.90
20845;DHT22;10583;49.084;8.646;2023-09-08T00:24:10;16.40;99.90
20845;DHT22;10583;49.084;8.646;2023-09-08T00:26:37;16.40;99.90
20845;DHT22;10583;49.084;8.646;2023-09-08T00:29:05;16.40;99.90
20845;DHT22;10583;49.084;8.646;2023-09-08T00:31:33;16.40;99.90
20845;DHT22;10583;49.084;8.646;2023-09-08T00:33:59;16.30;99.90
20845;DHT22;10583;49.084;8.646;2023-09-08T00:36:26;16.30;99.90
20845;DHT22;10583;49.084;8.646;2023-09-08T00:38:53;16.30;99.90
20845;DHT22;10583;49.084;8.646;2023-09-08T00:41:20;16.20;99.90
20845;DHT22;10583;49.084;8.646;2023-09-08T00:43:49;16.10;99.90
20845;DHT22;10583;49.084;8.646;2023-09-08T00:46:17;16.10;99.90
20845;DHT22;10583;49.084;8.646;2023-09-08T00:48:44;16.10;99.90
20845;DHT22;10583;49.084;8.646;2023-09-08T00:51:11;16.10;99.90
20845;DHT22;10583;49.084;8.646;2023-09-08T00:53:38;16.00;99.90
20845;DHT22;10583;49.084;8.646;2023-09-08T00:56:05;16.00;99.90
20845;DHT22;10583;49.084;8.646;2023-09-08T00:58:32;15.90;99.90
20845;DHT22;10583;49.084;8.646;2023-09-08T01:00:59;15.90;99.90
20845;DHT22;10583;49.084;8.646;2023-09-08T01:03:27;15.90;99.90
20845;DHT22;10583;49.084;8.646;2023-09-08T01:05:54;15.80;99.90
20845;DHT22;10583;49.084;8.646;2023-09-08T01:08:21;15.80;99.90
20845;DHT22;10583;49.084;8.646;2023-09-08T01:10:48;15.80;99.90
20845;DHT22;10583;49.084;8.646;2023-09-08T01:13:15;15.70;99.90
20845;DHT22;10583;49.084;8.646;2023-09-08T01:15:42;15.70;99.90
20845;DHT22;10583;49.084;8.646;2023-09-08T01:18:08;15.70;99.90
20845;DHT22;10583;49.084;8.646;2023-09-08T01:20:55;15.70;99.90
20845;DHT22;10583;49.084;8.646;2023-09-08T01:23:35;15.70;99.90
20845;DHT22;10583;49.084;8.646;2023-09-08T01:26:09;15.70;99.90
20845;DHT22;10583;49.084;8.646;2023-09-08T01:28:39;15.70;99.90
20845;DHT22;10583;49.084;8.646;2023-09-08T01:31:06;15.70;99.90
20845;DHT22;10583;49.084;8.646;2023-09-08T01:33:33;15.60;99.90
20845;DHT22;10583;49.084;8.646;2023-09-08T01:36:01;15.50;99.90
20845;DHT22;10583;49.084;8.646;2023-09-08T01:38:28;15.40;99.90
20845;DHT22;10583;49.084;8.646;2023-09-08T01:40:55;15.40;99.90
20845;DHT22;10583;49.084;8.646;2023-09-08T01:43:23;15.40;99.90
20845;DHT22;10583;49.084;8.646;2023-09-08T01:45:50;15.40;99.90
20845;DHT22;10583;49.084;8.646;2023-09-08T01:48:17;15.30;99.90
20845;DHT22;10583;49.084;8.646;2023-09-08T01:50:43;15.30;99.90
20845;DHT22;10583;49.084;8.646;2023-09-08T01:53:10;15.30;99.90
20845;DHT22;10583;49.084;8.646;2023-09-08T01:55:37;15.30;99.90
20845;DHT22;10583;49.084;8.646;2023-09-08T01:58:04;15.30;99.90
20845;DHT22;10583;49.084;8.646;2023-09-08T02:00:32;15.20;99.90
20845;DHT22;10583;49.084;8.646;2023-09-08T02:02:58;15.10;99.90
20845;DHT22;10583;49.084;8.646;2023-09-08T02:05:25;15.10;99.90
20845;DHT22;10583;49.084;8.646;2023-09-08T02:07:52;14.90;99.90
20845;DHT22;10583;49.084;8.646;2023-09-08T02:10:21;14.80;99.90
20845;DHT22;10583;49.084;8.646;2023-09-08T02:12:47;14.90;99.90
20845;DHT22;10583;49.084;8.646;2023-09-08T02:15:14;14.90;99.90
20845;DHT22;10583;49.084;8.646;2023-09-08T02:17:42;15.00;99.90
20845;DHT22;10583;49.084;8.646;2023-09-08T02:20:10;15.00;99.90
20845;DHT22;10583;49.084;8.646;2023-09-08T02:22:37;14.90;99.90
20845;DHT22;10583;49.084;8.646;2023-09-08T02:25:04;14.80;99.90
20845;DHT22;10583;49.084;8.646;2023-09-08T02:27:31;14.70;99.90
20845;DHT22;10583;49.084;8.646;2023-09-08T02:29:58;14.70;99.90
20845;DHT22;10583;49.084;8.646;2023-09-08T02:32:24;14.80;99.90
20845;DHT22;10583;49.084;8.646;2023-09-08T02:34:52;14.80;99.90
20845;DHT22;10583;49.084;8.646;2023-09-08T02:37:19;14.70;99.90
20845;DHT22;10583;49.084;8.646;2023-09-08T02:39:46;14.60;99.90
20845;DHT22;10583;49.084;8.646;2023-09-08T02:42:12;14.50;99.90
20845;DHT22;10583;49.084;8.646;2023-09-08T02:44:39;14.50;99.90
20845;DHT22;10583;49.084;8.646;2023-09-08T02:47:06;14.80;99.90
20845;DHT22;10583;49.084;8.646;2023-09-08T02:49:33;14.90;99.90
20845;DHT22;10583;49.084;8.646;2023-09-08T02:52:01;14.90;99.90
20845;DHT22;10583;49.084;8.646;2023-09-08T02:54:28;14.90;99.90
20845;DHT22;10583;49.084;8.646;2023-09-08T02:56:54;14.90;99.90
20845;DHT22;10583;49.084;8.646;2023-09-08T02:59:21;14.90;99.90
20845;DHT22;10583;49.084;8.646;2023-09-08T03:01:48;14.90;99.90
20845;DHT22;10583;49.084;8.646;2023-09-08T03:04:14;14.80;99.90
20845;DHT22;10583;49.084;8.646;2023-09-08T03:06:41;14.80;99.90
20845;DHT22;10583;49.084;8.646;2023-09-08T03:09:09;14.80;99.90
20845;DHT22;10583;49.084;8.646;2023-09-08T03:11:36;14.80;99.90
20845;DHT22;10583;49.084;8.646;2023-09-08T03:14:03;14.90;99.90
20845;DHT22;10583;49.084;8.646;2023-09-08T03:16:30;15.00;99.90
20845;DHT22;10583;49.084;8.646;2023-09-08T03:18:57;15.10;99.90
20845;DHT22;10583;49.084;8.646;2023-09-08T03:21:24;15.10;99.90
20845;DHT22;10583;49.084;8.646;2023-09-08T03:23:50;15.20;99.90
20845;DHT22;10583;49.084;8.646;2023-09-08T03:26:18;15.20;99.90
20845;DHT22;10583;49.084;8.646;2023-09-08T03:28:45;15.20;99.90
20845;DHT22;10583;49.084;8.646;2023-09-08T03:31:12;15.10;99.90
20845;DHT22;10583;49.084;8.646;2023-09-08T03:33:38;14.90;99.90
20845;DHT22;10583;49.084;8.646;2023-09-08T03:36:05;14.70;99.90
20845;DHT22;10583;49.084;8.646;2023-09-08T03:38:32;14.70;99.90
20845;DHT22;10583;49.084;8.646;2023-09-08T03:40:59;14.80;99.90
20845;DHT22;10583;49.084;8.646;2023-09-08T03:43:27;14.70;99.90
20845;DHT22;10583;49.084;8.646;2023-09-08T03:45:53;14.80;99.90
20845;DHT22;10583;49.084;8.646;2023-09-08T03:48:20;14.80;99.90
20845;DHT22;10583;49.084;8.646;2023-09-08T03:50:47;14.80;99.90
20845;DHT22;10583;49.084;8.646;2023-09-08T03:53:13;14.80;99.90
20845;DHT22;10583;49.084;8.646;2023-09-08T03:55:40;14.70;99.90
20845;DHT22;10583;49.084;8.646;2023-09-08T03:58:07;14.70;99.90
20845;DHT22;10583;49.084;8.646;2023-09-08T04:00:35;14.60;99.90
20845;DHT22;10583;49.084;8.646;2023-09-08T04:03:02;14.70;99.90
20845;DHT22;10583;49.084;8.646;2023-09-08T04:05:29;14.70;99.90
20845;DHT22;10583;49.084;8.646;2023-09-08T04:07:56;14.70;99.90
20845;DHT22;10583;49.084;8.646;2023-09-08T04:10:23;14.60;99.90
20845;DHT22;10583;49.084;8.646;2023-09-08T04:12:50;14.60;99.90
20845;DHT22;10583;49.084;8.646;2023-09-08T04:15:17;14.60;99.90
20845;DHT22;10583;49.084;8.646;2023-09-08T04:17:45;14.50;99.90
20845;DHT22;10583;49.084;8.646;2023-09-08T04:20:12;14.50;99.90
20845;DHT22;10583;49.084;8.646;2023-09-08T04:22:40;14.50;99.90
20845;DHT22;10583;49.084;8.646;2023-09-08T04:25:07;14.50;99.90
20845;DHT22;10583;49.084;8.646;2023-09-08T04:27:35;14.60;99.90
20845;DHT22;10583;49.084;8.646;2023-09-08T04:30:02;14.50;99.90
20845;DHT22;10583;49.084;8.646;2023-09-08T04:32:29;14.50;99.90
20845;DHT22;10583;49.084;8.646;2023-09-08T04:34:57;14.40;99.90
20845;DHT22;10583;49.084;8.646;2023-09-08T04:37:24;14.40;99.90
20845;DHT22;10583;49.084;8.646;2023-09-08T04:39:51;14.40;99.90
20845;DHT22;10583;49.084;8.646;2023-09-08T04:42:17;14.40;99.90
20845;DHT22;10583;49.084;8.646;2023-09-08T04:44:44;14.30;99.90
20845;DHT22;10583;49.084;8.646;2023-09-08T04:47:11;14.20;99.90
20845;DHT22;10583;49.084;8.646;2023-09-08T04:49:37;14.10;99.90
20845;DHT22;10583;49.084;8.646;2023-09-08T04:52:06;14.20;99.90
20845;DHT22;10583;49.084;8.646;2023-09-08T04:54:32;14.20;99.90
20845;DHT22;10583;49.084;8.646;2023-09-08T04:56:59;14.20;99.90
20845;DHT22;10583;49.084;8.646;2023-09-08T04:59:26;14.30;99.90
20845;DHT22;10583;49.084;8.646;2023-09-08T05:01:52;14.40;99.90
20845;DHT22;10583;49.084;8.646;2023-09-08T05:04:19;14.40;99.90
20845;DHT22;10583;49.084;8.646;2023-09-08T05:06:46;14.40;99.90
20845;DHT22;10583;49.084;8.646;2023-09-08T05:09:14;14.30;99.90
20845;DHT22;10583;49.084;8.646;2023-09-08T05:11:41;14.30;99.90
20845;DHT22;10583;49.084;8.646;2023-09-08T05:14:08;14.30;99.90
20845;DHT22;10583;49.084;8.646;2023-09-08T05:16:34;14.40;99.90
20845;DHT22;10583;49.084;8.646;2023-09-08T05:19:10;14.40;99.90
20845;DHT22;10583;49.084;8.646;2023-09-08T05:21:37;14.40;99.90
20845;DHT22;10583;49.084;8.646;2023-09-08T05:24:04;14.40;99.90
20845;DHT22;10583;49.084;8.646;2023-09-08T05:26:33;14.40;99.90
20845;DHT22;10583;49.084;8.646;2023-09-08T05:29:00;14.40;99.90
20845;DHT22;10583;49.084;8.646;2023-09-08T05:31:26;14.50;99.90
20845;DHT22;10583;49.084;8.646;2023-09-08T05:33:53;14.50;99.90
20845;DHT22;10583;49.084;8.646;2023-09-08T05:36:20;14.50;99.90
20845;DHT22;10583;49.084;8.646;2023-09-08T05:38:47;14.60;99.90
20845;DHT22;10583;49.084;8.646;2023-09-08T05:41:13;14.70;99.90
20845;DHT22;10583;49.084;8.646;2023-09-08T05:43:41;14.80;99.90
20845;DHT22;10583;49.084;8.646;2023-09-08T05:46:08;14.90;99.90
20845;DHT22;10583;49.084;8.646;2023-09-08T05:48:35;15.00;99.90
20845;DHT22;10583;49.084;8.646;2023-09-08T05:51:02;15.10;99.90
20845;DHT22;10583;49.084;8.646;2023-09-08T05:53:28;15.30;99.90
20845;DHT22;10583;49.084;8.646;2023-09-08T05:55:55;15.40;99.90
20845;DHT22;10583;49.084;8.646;2023-09-08T05:58:22;15.60;99.90
20845;DHT22;10583;49.084;8.646;2023-09-08T06:00:51;15.80;99.90
20845;DHT22;10583;49.084;8.646;2023-09-08T06:03:17;16.00;99.90
20845;DHT22;10583;49.084;8.646;2023-09-08T06:05:44;16.20;99.90
20845;DHT22;10583;49.084;8.646;2023-09-08T06:08:11;16.40;99.90
20845;DHT22;10583;49.084;8.646;2023-09-08T06:10:38;16.60;99.90
20845;DHT22;10583;49.084;8.646;2023-09-08T06:13:05;16.80;99.90
20845;DHT22;10583;49.084;8.646;2023-09-08T06:15:31;16.90;99.90
20845;DHT22;10583;49.084;8.646;2023-09-08T06:17:59;17.10;99.90
20845;DHT22;10583;49.084;8.646;2023-09-08T06:20:26;17.20;99.90
20845;DHT22;10583;49.084;8.646;2023-09-08T06:22:53;17.40;99.90
20845;DHT22;10583;49.084;8.646;2023-09-08T06:25:19;17.60;99.90
20845;DHT22;10583;49.084;8.646;2023-09-08T06:27:46;17.70;99.90
20845;DHT22;10583;49.084;8.646;2023-09-08T06:30:13;17.90;99.90
20845;DHT22;10583;49.084;8.646;2023-09-08T06:32:41;18.10;99.90
20845;DHT22;10583;49.084;8.646;2023-09-08T06:35:10;18.30;99.90
20845;DHT22;10583;49.084;8.646;2023-09-08T06:37:38;18.50;99.90
20845;DHT22;10583;49.084;8.646;2023-09-08T06:40:06;18.70;99.90
20845;DHT22;10583;49.084;8.646;2023-09-08T06:42:33;19.00;99.90
20845;DHT22;10583;49.084;8.646;2023-09-08T06:45:00;19.20;99.90
20845;DHT22;10583;49.084;8.646;2023-09-08T06:47:27;19.40;99.90
20845;DHT22;10583;49.084;8.646;2023-09-08T06:49:53;19.50;99.90
20845;DHT22;10583;49.084;8.646;2023-09-08T06:52:21;19.70;99.90
20845;DHT22;10583;49.084;8.646;2023-09-08T06:54:48;19.90;99.90
20845;DHT22;10583;49.084;8.646;2023-09-08T06:57:18;19.90;99.90
20845;DHT22;10583;49.084;8.646;2023-09-08T06:59:46;20.10;99.90
20845;DHT22;10583;49.084;8.646;2023-09-08T07:02:13;20.30;99.90
20845;DHT22;10583;49.084;8.646;2023-09-08T07:04:39;20.50;99.90
20845;DHT22;10583;49.084;8.646;2023-09-08T07:07:06;20.80;99.90
20845;DHT22;10583;49.084;8.646;2023-09-08T07:09:35;20.90;99.90
20845;DHT22;10583;49.084;8.646;2023-09-08T07:12:02;21.00;99.90
20845;DHT22;10583;49.084;8.646;2023-09-08T07:14:29;21.10;99.90
20845;DHT22;10583;49.084;8.646;2023-09-08T07:16:56;21.30;99.90
20845;DHT22;10583;49.084;8.646;2023-09-08T07:19:23;21.60;99.90
20845;DHT22;10583;49.084;8.646;2023-09-08T07:21:49;21.80;99.90
20845;DHT22;10583;49.084;8.646;2023-09-08T07:24:16;21.90;99.90
20845;DHT22;10583;49.084;8.646;2023-09-08T07:26:44;21.90;99.90
20845;DHT22;10583;49.084;8.646;2023-09-08T07:29:11;22.00;99.90
20845;DHT22;10583;49.084;8.646;2023-09-08T07:31:38;22.20;99.90
20845;DHT22;10583;49.084;8.646;2023-09-08T07:34:05;22.40;99.90
20845;DHT22;10583;49.084;8.646;2023-09-08T07:36:32;22.50;99.90
20845;DHT22;10583;49.084;8.646;2023-09-08T07:38:58;22.80;99.90
20845;DHT22;10583;49.084;8.646;2023-09-08T07:41:25;23.00;99.90
20845;DHT22;10583;49.084;8.646;2023-09-08T07:43:53;23.20;99.90
20845;DHT22;10583;49.084;8.646;2023-09-08T07:46:20;23.30;99.90
20845;DHT22;10583;49.084;8.646;2023-09-08T07:48:46;23.40;99.90
20845;DHT22;10583;49.084;8.646;2023-09-08T07:51:13;23.50;99.90
20845;DHT22;10583;49.084;8.646;2023-09-08T07:53:40;23.70;99.90
20845;DHT22;10583;49.084;8.646;2023-09-08T07:56:06;23.80;99.90
20845;DHT22;10583;49.084;8.646;2023-09-08T07:58:33;23.80;99.90
20845;DHT22;10583;49.084;8.646;2023-09-08T08:01:01;24.00;99.90
20845;DHT22;10583;49.084;8.646;2023-09-08T08:03:28;24.20;99.90
20845;DHT22;10583;49.084;8.646;2023-09-08T08:05:56;24.30;99.90
20845;DHT22;10583;49.084;8.646;2023-09-08T08:08:23;24.40;99.90
20845;DHT22;10583;49.084;8.646;2023-09-08T08:10:50;24.70;99.90
20845;DHT22;10583;49.084;8.646;2023-09-08T08:13:16;25.10;99.90
20845;DHT22;10583;49.084;8.646;2023-09-08T08:15:44;25.40;99.90
20845;DHT22;10583;49.084;8.646;2023-09-08T08:18:14;25.60;99.90
20845;DHT22;10583;49.084;8.646;2023-09-08T08:20:40;25.40;99.90
20845;DHT22;10583;49.084;8.646;2023-09-08T08:23:07;25.20;99.90
20845;DHT22;10583;49.084;8.646;2023-09-08T08:25:34;25.10;99.90
20845;DHT22;10583;49.084;8.646;2023-09-08T08:28:01;25.30;99.90
20845;DHT22;10583;49.084;8.646;2023-09-08T08:30:28;25.70;99.90
20845;DHT22;10583;49.084;8.646;2023-09-08T08:32:55;26.00;99.90
20845;DHT22;10583;49.084;8.646;2023-09-08T08:35:23;26.30;99.90
20845;DHT22;10583;49.084;8.646;2023-09-08T08:37:49;26.50;99.90
20845;DHT22;10583;49.084;8.646;2023-09-08T08:40:16;26.70;99.90
20845;DHT22;10583;49.084;8.646;2023-09-08T08:42:43;26.90;99.90
20845;DHT22;10583;49.084;8.646;2023-09-08T08:45:10;27.10;99.90
20845;DHT22;10583;49.084;8.646;2023-09-08T08:47:37;27.30;99.90
20845;DHT22;10583;49.084;8.646;2023-09-08T08:50:08;27.50;99.90
20845;DHT22;10583;49.084;8.646;2023-09-08T08:52:38;27.80;99.90
20845;DHT22;10583;49.084;8.646;2023-09-08T08:55:05;28.10;99.90
20845;DHT22;10583;49.084;8.646;2023-09-08T08:57:34;28.20;99.90
20845;DHT22;10583;49.084;8.646;2023-09-08T09:00:04;28.30;99.90
20845;DHT22;10583;49.084;8.646;2023-09-08T09:02:34;28.20;99.90
20845;DHT22;10583;49.084;8.646;2023-09-08T09:05:01;28.10;99.90
20845;DHT22;10583;49.084;8.646;2023-09-08T09:07:28;27.90;99.90
20845;DHT22;10583;49.084;8.646;2023-09-08T09:09:57;27.90;99.90
20845;DHT22;10583;49.084;8.646;2023-09-08T09:12:24;27.90;99.90
20845;DHT22;10583;49.084;8.646;2023-09-08T09:14:53;28.00;99.90
20845;DHT22;10583;49.084;8.646;2023-09-08T09:17:19;28.40;99.90
20845;DHT22;10583;49.084;8.646;2023-09-08T09:19:46;28.80;99.90
20845;DHT22;10583;49.084;8.646;2023-09-08T09:22:13;29.00;99.90
20845;DHT22;10583;49.084;8.646;2023-09-08T09:24:41;29.00;99.90
20845;DHT22;10583;49.084;8.646;2023-09-08T09:27:11;29.10;99.90
20845;DHT22;10583;49.084;8.646;2023-09-08T09:29:44;29.10;99.90
20845;DHT22;10583;49.084;8.646;2023-09-08T09:32:12;29.10;99.90
20845;DHT22;10583;49.084;8.646;2023-09-08T09:34:47;29.00;99.90
20845;DHT22;10583;49.084;8.646;2023-09-08T09:37:15;29.10;99.90
20845;DHT22;10583;49.084;8.646;2023-09-08T09:39:41;29.20;99.90
20845;DHT22;10583;49.084;8.646;2023-09-08T09:42:09;29.20;99.90
20845;DHT22;10583;49.084;8.646;2023-09-08T09:44:36;29.40;99.90
20845;DHT22;10583;49.084;8.646;2023-09-08T09:47:04;29.60;99.90
20845;DHT22;10583;49.084;8.646;2023-09-08T09:49:31;29.70;99.90
20845;DHT22;10583;49.084;8.646;2023-09-08T09:51:58;29.80;99.90
20845;DHT22;10583;49.084;8.646;2023-09-08T09:54:25;29.70;99.90
20845;DHT22;10583;49.084;8.646;2023-09-08T09:56:52;29.80;99.90
20845;DHT22;10583;49.084;8.646;2023-09-08T09:59:21;29.80;99.90
20845;DHT22;10583;49.084;8.646;2023-09-08T10:01:49;29.80;99.90
20845;DHT22;10583;49.084;8.646;2023-09-08T10:04:16;29.90;99.90
20845;DHT22;10583;49.084;8.646;2023-09-08T10:06:43;29.90;99.90
20845;DHT22;10583;49.084;8.646;2023-09-08T10:09:11;29.80;99.90
20845;DHT22;10583;49.084;8.646;2023-09-08T10:11:42;29.80;99.90
20845;DHT22;10583;49.084;8.646;2023-09-08T10:14:11;30.10;99.90
20845;DHT22;10583;49.084;8.646;2023-09-08T10:16:40;30.20;99.90
20845;DHT22;10583;49.084;8.646;2023-09-08T10:19:10;30.30;99.90
20845;DHT22;10583;49.084;8.646;2023-09-08T10:21:40;30.50;99.90
20845;DHT22;10583;49.084;8.646;2023-09-08T10:24:14;30.70;99.90
20845;DHT22;10583;49.084;8.646;2023-09-08T10:26:44;30.20;99.90
20845;DHT22;10583;49.084;8.646;2023-09-08T10:29:12;30.30;99.90
20845;DHT22;10583;49.084;8.646;2023-09-08T10:31:42;30.40;99.90
20845;DHT22;10583;49.084;8.646;2023-09-08T10:34:10;30.60;99.90
20845;DHT22;10583;49.084;8.646;2023-09-08T10:36:37;31.00;99.90
20845;DHT22;10583;49.084;8.646;2023-09-08T10:39:29;31.40;99.90
20845;DHT22;10583;49.084;8.646;2023-09-08T10:42:22;31.60;99.90
20845;DHT22;10583;49.084;8.646;2023-09-08T10:44:59;32.10;99.90
20845;DHT22;10583;49.084;8.646;2023-09-08T10:47:35;32.10;99.90
20845;DHT22;10583;49.084;8.646;2023-09-08T10:50:07;32.30;99.90
20845;DHT22;10583;49.084;8.646;2023-09-08T10:52:35;32.50;99.90
20845;DHT22;10583;49.084;8.646;2023-09-08T10:55:01;32.40;99.90
20845;DHT22;10583;49.084;8.646;2023-09-08T10:57:33;32.40;99.90
20845;DHT22;10583;49.084;8.646;2023-09-08T11:00:02;32.50;99.90
20845;DHT22;10583;49.084;8.646;2023-09-08T11:02:37;32.60;99.70
20845;DHT22;10583;49.084;8.646;2023-09-08T11:05:06;32.70;99.90
20845;DHT22;10583;49.084;8.646;2023-09-08T11:07:35;32.40;99.90
20845;DHT22;10583;49.084;8.646;2023-09-08T11:10:02;32.40;99.80
20845;DHT22;10583;49.084;8.646;2023-09-08T11:12:29;32.30;99.60
20845;DHT22;10583;49.084;8.646;2023-09-08T11:14:56;32.10;99.10
20845;DHT22;10583;49.084;8.646;2023-09-08T11:17:25;32.20;99.90
20845;DHT22;10583;49.084;8.646;2023-09-08T11:19:54;32.00;99.90
20845;DHT22;10583;49.084;8.646;2023-09-08T11:22:22;32.10;99.90
20845;DHT22;10583;49.084;8.646;2023-09-08T11:24:50;32.50;99.90
20845;DHT22;10583;49.084;8.646;2023-09-08T11:27:18;32.70;98.80
20845;DHT22;10583;49.084;8.646;2023-09-08T11:29:45;32.60;98.70
20845;DHT22;10583;49.084;8.646;2023-09-08T11:32:12;32.90;99.80
20845;DHT22;10583;49.084;8.646;2023-09-08T11:34:39;33.00;98.40
20845;DHT22;10583;49.084;8.646;2023-09-08T11:37:09;33.00;98.50
20845;DHT22;10583;49.084;8.646;2023-09-08T11:39:37;33.10;98.10
20845;DHT22;10583;49.084;8.646;2023-09-08T11:42:05;33.20;99.00
20845;DHT22;10583;49.084;8.646;2023-09-08T11:44:32;33.10;97.90
20845;DHT22;10583;49.084;8.646;2023-09-08T11:46:59;33.00;97.70
20845;DHT22;10583;49.084;8.646;2023-09-08T11:49:26;33.00;97.90
20845;DHT22;10583;49.084;8.646;2023-09-08T11:51:52;32.80;97.60
20845;DHT22;10583;49.084;8.646;2023-09-08T11:54:21;32.80;98.70
20845;DHT22;10583;49.084;8.646;2023-09-08T11:56:47;32.70;98.80
20845;DHT22;10583;49.084;8.646;2023-09-08T11:59:14;32.60;99.10
20845;DHT22;10583;49.084;8.646;2023-09-08T12:01:41;32.70;99.20
20845;DHT22;10583;49.084;8.646;2023-09-08T12:04:17;33.00;98.00
20845;DHT22;10583;49.084;8.646;2023-09-08T12:06:44;33.20;97.30
20845;DHT22;10583;49.084;8.646;2023-09-08T12:09:11;33.20;97.90
20845;DHT22;10583;49.084;8.646;2023-09-08T12:11:40;32.90;98.10
20845;DHT22;10583;49.084;8.646;2023-09-08T12:14:10;32.60;99.00
20845;DHT22;10583;49.084;8.646;2023-09-08T12:16:37;32.80;98.50
20845;DHT22;10583;49.084;8.646;2023-09-08T12:19:03;33.00;98.50
20845;DHT22;10583;49.084;8.646;2023-09-08T12:21:31;33.00;98.00
20845;DHT22;10583;49.084;8.646;2023-09-08T12:23:58;33.10;98.00
20845;DHT22;10583;49.084;8.646;2023-09-08T12:26:25;33.40;97.40
20845;DHT22;10583;49.084;8.646;2023-09-08T12:28:53;33.00;97.70
20845;DHT22;10583;49.084;8.646;2023-09-08T12:31:20;32.50;98.70
20845;DHT22;10583;49.084;8.646;2023-09-08T12:33:47;32.60;97.40
20845;DHT22;10583;49.084;8.646;2023-09-08T12:36:15;32.90;98.00
20845;DHT22;10583;49.084;8.646;2023-09-08T12:38:47;33.20;96.80
20845;DHT22;10583;49.084;8.646;2023-09-08T12:41:14;33.00;96.70
20845;DHT22;10583;49.084;8.646;2023-09-08T12:43:41;33.10;98.00
20845;DHT22;10583;49.084;8.646;2023-09-08T12:46:09;33.30;96.30
20845;DHT22;10583;49.084;8.646;2023-09-08T12:48:35;33.40;96.90
20845;DHT22;10583;49.084;8.646;2023-09-08T12:51:02;33.50;96.70
20845;DHT22;10583;49.084;8.646;2023-09-08T12:53:34;33.50;96.70
20845;DHT22;10583;49.084;8.646;2023-09-08T12:56:01;33.50;96.50
20845;DHT22;10583;49.084;8.646;2023-09-08T12:58:28;33.60;95.60
20845;DHT22;10583;49.084;8.646;2023-09-08T13:00:55;33.20;95.50
20845;DHT22;10583;49.084;8.646;2023-09-08T13:03:23;32.90;95.80
20845;DHT22;10583;49.084;8.646;2023-09-08T13:05:50;33.00;96.10
20845;DHT22;10583;49.084;8.646;2023-09-08T13:08:17;33.30;97.00
20845;DHT22;10583;49.084;8.646;2023-09-08T13:10:43;33.40;95.70
20845;DHT22;10583;49.084;8.646;2023-09-08T13:13:09;33.30;95.70
20845;DHT22;10583;49.084;8.646;2023-09-08T13:15:36;33.10;96.10
20845;DHT22;10583;49.084;8.646;2023-09-08T13:18:03;33.00;96.00
20845;DHT22;10583;49.084;8.646;2023-09-08T13:20:31;32.90;96.00
20845;DHT22;10583;49.084;8.646;2023-09-08T13:22:57;32.70;96.60
20845;DHT22;10583;49.084;8.646;2023-09-08T13:25:24;32.40;96.40
20845;DHT22;10583;49.084;8.646;2023-09-08T13:27:51;32.50;96.30
20845;DHT22;10583;49.084;8.646;2023-09-08T13:30:18;32.60;96.20
20845;DHT22;10583;49.084;8.646;2023-09-08T13:32:47;32.40;96.00
20845;DHT22;10583;49.084;8.646;2023-09-08T13:35:13;32.30;96.50
20845;DHT22;10583;49.084;8.646;2023-09-08T13:37:41;32.10;97.40
20845;DHT22;10583;49.084;8.646;2023-09-08T13:40:08;32.10;97.30
20845;DHT22;10583;49.084;8.646;2023-09-08T13:42:35;32.10;98.20
20845;DHT22;10583;49.084;8.646;2023-09-08T13:45:02;32.00;97.40
20845;DHT22;10583;49.084;8.646;2023-09-08T13:47:29;31.90;96.40
20845;DHT22;10583;49.084;8.646;2023-09-08T13:49:56;31.70;95.70
20845;DHT22;10583;49.084;8.646;2023-09-08T13:52:22;31.50;97.20
20845;DHT22;10583;49.084;8.646;2023-09-08T13:54:50;31.40;97.70
20845;DHT22;10583;49.084;8.646;2023-09-08T13:57:17;31.30;97.80
20845;DHT22;10583;49.084;8.646;2023-09-08T13:59:45;31.30;98.00
20845;DHT22;10583;49.084;8.646;2023-09-08T14:02:11;31.10;97.60
20845;DHT22;10583;49.084;8.646;2023-09-08T14:04:38;31.00;97.80
20845;DHT22;10583;49.084;8.646;2023-09-08T14:07:07;30.80;98.40
20845;DHT22;10583;49.084;8.646;2023-09-08T14:09:34;30.80;98.60
20845;DHT22;10583;49.084;8.646;2023-09-08T14:12:03;30.60;98.00
20845;DHT22;10583;49.084;8.646;2023-09-08T14:14:30;30.50;97.90
20845;DHT22;10583;49.084;8.646;2023-09-08T14:16:57;30.50;97.90
20845;DHT22;10583;49.084;8.646;2023-09-08T14:19:23;30.50;98.90
20845;DHT22;10583;49.084;8.646;2023-09-08T14:21:50;30.40;99.00
20845;DHT22;10583;49.084;8.646;2023-09-08T14:24:17;30.50;99.10
20845;DHT22;10583;49.084;8.646;2023-09-08T14:26:44;30.60;98.90
20845;DHT22;10583;49.084;8.646;2023-09-08T14:29:12;30.50;99.30
20845;DHT22;10583;49.084;8.646;2023-09-08T14:31:38;30.30;99.10
20845;DHT22;10583;49.084;8.646;2023-09-08T14:34:05;30.20;99.60
20845;DHT22;10583;49.084;8.646;2023-09-08T14:36:32;30.20;99.80
20845;DHT22;10583;49.084;8.646;2023-09-08T14:38:58;30.20;98.70
20845;DHT22;10583;49.084;8.646;2023-09-08T14:41:26;30.10;98.10
20845;DHT22;10583;49.084;8.646;2023-09-08T14:43:52;30.00;98.30
20845;DHT22;10583;49.084;8.646;2023-09-08T14:46:20;29.90;98.60
20845;DHT22;10583;49.084;8.646;2023-09-08T14:48:47;29.80;99.20
20845;DHT22;10583;49.084;8.646;2023-09-08T14:51:14;29.80;99.20
20845;DHT22;10583;49.084;8.646;2023-09-08T14:53:40;29.80;99.20
20845;DHT22;10583;49.084;8.646;2023-09-08T14:56:07;29.90;98.80
20845;DHT22;10583;49.084;8.646;2023-09-08T14:58:34;29.90;98.20
20845;DHT22;10583;49.084;8.646;2023-09-08T15:01:01;29.80;98.30
20845;DHT22;10583;49.084;8.646;2023-09-08T15:03:31;29.70;97.80
20845;DHT22;10583;49.084;8.646;2023-09-08T15:05:58;29.60;98.80
20845;DHT22;10583;49.084;8.646;2023-09-08T15:08:25;29.60;99.20
20845;DHT22;10583;49.084;8.646;2023-09-08T15:10:52;29.60;98.60
20845;DHT22;10583;49.084;8.646;2023-09-08T15:13:18;29.70;98.30
20845;DHT22;10583;49.084;8.646;2023-09-08T15:15:45;29.70;98.80
20845;DHT22;10583;49.084;8.646;2023-09-08T15:18:12;29.70;98.50
20845;DHT22;10583;49.084;8.646;2023-09-08T15:20:40;29.70;98.20
20845;DHT22;10583;49.084;8.646;2023-09-08T15:23:07;29.60;99.00
20845;DHT22;10583;49.084;8.646;2023-09-08T15:25:34;29.50;98.80
20845;DHT22;10583;49.084;8.646;2023-09-08T15:28:01;29.50;99.00
20845;DHT22;10583;49.084;8.646;2023-09-08T15:30:27;29.50;99.20
20845;DHT22;10583;49.084;8.646;2023-09-08T15:32:54;29.40;97.90